createdAt,value
2019-01-30T00:00:10.047Z,8.87
2019-01-30T00:02:36.197Z,14.93
2019-01-30T00:05:05.127Z,9.50
2019-01-30T00:07:32.266Z,11.17
2019-01-30T00:09:58.659Z,10.57
2019-01-30T00:12:25.024Z,11.17
2019-01-30T00:14:51.166Z,12.20
2019-01-30T00:17:17.303Z,11.57
2019-01-30T00:19:43.482Z,11.90
2019-01-30T00:22:09.634Z,10.70
2019-01-30T00:24:35.793Z,10.40
2019-01-30T00:27:01.948Z,9.60
2019-01-30T00:29:28.318Z,10.13
2019-01-30T00:31:54.475Z,11.27
2019-01-30T00:34:20.612Z,9.83
2019-01-30T00:36:46.762Z,11.63
2019-01-30T00:39:12.899Z,11.23
2019-01-30T00:41:39.042Z,10.97
2019-01-30T00:44:05.191Z,10.67
2019-01-30T00:46:31.570Z,13.37
2019-01-30T00:48:57.695Z,10.97
2019-01-30T00:51:23.897Z,9.50
2019-01-30T00:53:50.035Z,11.00
2019-01-30T00:56:16.412Z,14.17
2019-01-30T00:58:42.791Z,12.37
2019-01-30T01:01:08.948Z,11.87
2019-01-30T01:03:35.090Z,10.20
2019-01-30T01:06:01.338Z,10.03
2019-01-30T01:08:27.491Z,11.00
2019-01-30T01:10:53.636Z,11.90
2019-01-30T01:13:20.015Z,12.97
2019-01-30T01:15:46.158Z,11.20
2019-01-30T01:18:12.308Z,12.87
2019-01-30T01:20:38.696Z,9.43
2019-01-30T01:23:04.846Z,10.23
2019-01-30T01:25:30.979Z,11.53
2019-01-30T01:27:57.235Z,8.93
2019-01-30T01:30:25.698Z,10.30
2019-01-30T01:32:52.118Z,12.27
2019-01-30T01:35:18.262Z,9.53
2019-01-30T01:37:44.402Z,11.40
2019-01-30T01:40:12.544Z,10.33
2019-01-30T01:42:38.706Z,10.90
2019-01-30T01:45:08.438Z,12.37
2019-01-30T01:47:34.599Z,10.63
2019-01-30T01:50:00.727Z,10.57
2019-01-30T01:52:26.885Z,11.77
2019-01-30T01:54:53.017Z,12.97
2019-01-30T01:57:19.163Z,8.20
2019-01-30T01:59:45.302Z,11.00
2019-01-30T02:02:11.670Z,9.80
2019-01-30T02:04:37.825Z,10.03
2019-01-30T02:07:03.961Z,10.30
2019-01-30T02:09:30.117Z,9.87
2019-01-30T02:11:56.503Z,9.97
2019-01-30T02:14:22.651Z,8.80
2019-01-30T02:16:48.794Z,9.50
2019-01-30T02:19:14.947Z,10.20
2019-01-30T02:21:41.073Z,9.87
2019-01-30T02:24:07.236Z,15.17
2019-01-30T02:26:33.353Z,11.10
2019-01-30T02:28:59.734Z,10.30
2019-01-30T02:31:26.098Z,12.60
2019-01-30T02:33:52.503Z,12.97
2019-01-30T02:36:18.646Z,10.87
2019-01-30T02:38:44.782Z,11.47
2019-01-30T02:41:10.927Z,16.37
2019-01-30T02:43:37.351Z,12.33
2019-01-30T02:46:03.494Z,11.73
2019-01-30T02:48:29.891Z,10.23
2019-01-30T02:50:56.288Z,13.17
2019-01-30T02:53:22.529Z,13.67
2019-01-30T02:55:48.687Z,13.07
2019-01-30T02:58:15.826Z,11.73
2019-01-30T03:00:42.206Z,13.50
2019-01-30T03:03:08.369Z,15.60
2019-01-30T03:05:34.539Z,15.43
2019-01-30T03:08:00.673Z,12.37
2019-01-30T03:10:26.864Z,12.80
2019-01-30T03:12:53.019Z,13.13
2019-01-30T03:15:19.374Z,12.33
2019-01-30T03:17:45.562Z,12.73
2019-01-30T03:20:16.341Z,16.07
2019-01-30T03:22:42.743Z,14.67
2019-01-30T03:25:11.407Z,16.57
2019-01-30T03:27:37.546Z,14.67
2019-01-30T03:30:07.508Z,18.87
2019-01-30T03:32:33.643Z,16.80
2019-01-30T03:34:59.786Z,13.03
2019-01-30T03:37:25.946Z,20.77
2019-01-30T03:39:52.363Z,16.27
2019-01-30T03:42:18.505Z,12.37
2019-01-30T03:44:45.646Z,15.63
2019-01-30T03:47:11.875Z,12.90
2019-01-30T03:49:38.013Z,14.63
2019-01-30T03:52:04.164Z,15.40
2019-01-30T03:54:30.465Z,12.73
2019-01-30T03:56:56.610Z,11.67
2019-01-30T03:59:22.756Z,17.37
2019-01-30T04:01:48.898Z,13.37
2019-01-30T04:04:15.026Z,13.20
2019-01-30T04:06:42.178Z,16.90
2019-01-30T04:09:08.319Z,14.40
2019-01-30T04:11:34.469Z,18.77
2019-01-30T04:14:00.855Z,17.77
2019-01-30T04:16:27.057Z,16.70
2019-01-30T04:18:53.207Z,14.80
2019-01-30T04:21:19.358Z,18.10
2019-01-30T04:23:45.505Z,16.07
2019-01-30T04:26:11.658Z,15.87
2019-01-30T04:28:37.787Z,14.70
2019-01-30T04:31:03.941Z,18.80
2019-01-30T04:33:30.348Z,14.10
2019-01-30T04:35:56.494Z,14.63
2019-01-30T04:38:22.853Z,13.07
2019-01-30T04:40:49.014Z,14.47
2019-01-30T04:43:15.195Z,14.63
2019-01-30T04:45:41.339Z,13.70
2019-01-30T04:48:07.475Z,14.33
2019-01-30T04:50:33.626Z,13.30
2019-01-30T04:52:59.763Z,12.47
2019-01-30T04:55:25.943Z,12.27
2019-01-30T04:57:52.095Z,12.70
2019-01-30T05:00:20.807Z,11.87
2019-01-30T05:02:47.243Z,13.53
2019-01-30T05:05:13.603Z,15.97
2019-01-30T05:07:39.776Z,12.33
2019-01-30T05:10:08.245Z,15.77
2019-01-30T05:12:34.402Z,11.83
2019-01-30T05:15:00.702Z,11.83
2019-01-30T05:17:26.904Z,12.27
2019-01-30T05:19:53.275Z,13.23
2019-01-30T05:22:19.426Z,13.63
2019-01-30T05:24:45.563Z,14.23
2019-01-30T05:27:11.981Z,14.47
2019-01-30T05:29:39.119Z,13.47
2019-01-30T05:32:05.287Z,10.37
2019-01-30T05:34:31.686Z,10.50
2019-01-30T05:36:57.842Z,11.60
2019-01-30T05:39:23.983Z,11.43
2019-01-30T05:41:50.439Z,12.87
2019-01-30T05:44:16.576Z,11.43
2019-01-30T05:46:42.738Z,12.87
2019-01-30T05:49:08.890Z,12.87
2019-01-30T05:51:35.067Z,14.97
2019-01-30T05:54:01.211Z,14.20
2019-01-30T05:56:27.405Z,16.70
2019-01-30T05:58:53.552Z,14.57
2019-01-30T06:01:19.689Z,16.57
2019-01-30T06:03:45.832Z,11.43
2019-01-30T06:06:12.004Z,11.53
2019-01-30T06:08:38.139Z,15.60
2019-01-30T06:11:04.274Z,12.83
2019-01-30T06:13:30.694Z,11.77
2019-01-30T06:15:56.864Z,15.83
2019-01-30T06:18:23.031Z,15.30
2019-01-30T06:20:49.190Z,17.37
2019-01-30T06:23:15.464Z,14.37
2019-01-30T06:25:41.623Z,13.83
2019-01-30T06:28:07.795Z,14.60
2019-01-30T06:30:34.187Z,13.80
2019-01-30T06:33:00.330Z,13.67
2019-01-30T06:35:26.517Z,14.03
2019-01-30T06:37:52.654Z,14.17
2019-01-30T06:40:27.015Z,15.33
2019-01-30T06:42:53.160Z,15.23
2019-01-30T06:45:19.559Z,15.83
2019-01-30T06:47:45.726Z,15.27
2019-01-30T06:50:12.683Z,14.77
2019-01-30T06:52:38.847Z,18.33
2019-01-30T06:55:05.286Z,20.63
2019-01-30T06:57:31.495Z,15.53
2019-01-30T06:59:57.654Z,13.57
2019-01-30T07:02:32.053Z,15.13
2019-01-30T07:04:51.839Z,18.27
2019-01-30T07:07:17.976Z,14.33
2019-01-30T07:09:44.398Z,16.40
2019-01-30T07:12:10.552Z,15.20
2019-01-30T07:14:36.955Z,15.03
2019-01-30T07:17:03.184Z,15.90
2019-01-30T07:19:29.330Z,15.57
2019-01-30T07:21:55.503Z,17.03
2019-01-30T07:24:21.689Z,14.43
2019-01-30T07:26:47.835Z,12.40
2019-01-30T07:29:14.022Z,13.83
2019-01-30T07:31:40.173Z,15.77
2019-01-30T07:34:06.309Z,18.17
2019-01-30T07:36:32.694Z,13.77
2019-01-30T07:38:58.841Z,15.83
2019-01-30T07:41:24.987Z,15.07
2019-01-30T07:43:51.143Z,14.97
2019-01-30T07:46:17.323Z,18.67
2019-01-30T07:48:43.688Z,19.20
2019-01-30T07:51:09.838Z,17.63
2019-01-30T07:53:35.962Z,15.87
2019-01-30T07:56:02.115Z,16.70
2019-01-30T07:58:28.275Z,17.00
2019-01-30T08:00:54.452Z,16.70
2019-01-30T08:03:20.591Z,16.40
2019-01-30T08:05:47.400Z,14.53
2019-01-30T08:08:13.849Z,19.03
2019-01-30T08:10:40.007Z,16.67
2019-01-30T08:13:06.148Z,16.97
2019-01-30T08:15:32.569Z,18.10
2019-01-30T08:17:58.958Z,16.47
2019-01-30T08:20:25.112Z,17.37
2019-01-30T08:22:51.282Z,15.70
2019-01-30T08:25:19.217Z,14.07
2019-01-30T08:27:45.409Z,18.30
2019-01-30T08:30:22.613Z,17.10
2019-01-30T08:32:46.018Z,18.00
2019-01-30T08:35:12.731Z,17.00
2019-01-30T08:37:38.920Z,16.03
2019-01-30T08:40:07.584Z,18.17
2019-01-30T08:42:33.736Z,15.20
2019-01-30T08:44:59.872Z,18.83
2019-01-30T08:47:27.025Z,16.30
2019-01-30T08:49:53.512Z,17.50
2019-01-30T08:52:19.668Z,18.27
2019-01-30T08:54:45.803Z,18.43
2019-01-30T08:57:12.019Z,17.97
2019-01-30T08:59:38.161Z,17.90
2019-01-30T09:02:04.365Z,17.67
2019-01-30T09:04:30.503Z,15.60
2019-01-30T09:06:56.664Z,17.67
2019-01-30T09:09:23.077Z,17.80
2019-01-30T09:11:49.867Z,14.47
2019-01-30T09:14:16.259Z,15.93
2019-01-30T09:16:42.717Z,17.43
2019-01-30T09:19:08.900Z,16.00
2019-01-30T09:21:35.075Z,20.00
2019-01-30T09:24:01.280Z,21.35
2019-01-30T09:26:27.438Z,20.00
2019-01-30T09:28:53.864Z,19.13
2019-01-30T09:31:20.053Z,22.33
2019-01-30T09:33:46.241Z,20.67
2019-01-30T09:36:12.384Z,21.10
2019-01-30T09:38:38.577Z,19.77
2019-01-30T09:41:05.027Z,20.10
2019-01-30T09:43:31.439Z,23.13
2019-01-30T09:45:57.874Z,22.97
2019-01-30T09:48:24.090Z,22.10
2019-01-30T09:50:50.284Z,24.07
2019-01-30T09:53:16.499Z,24.30
2019-01-30T09:55:42.678Z,21.90
2019-01-30T09:58:08.855Z,25.23
2019-01-30T10:00:36.614Z,22.40
2019-01-30T10:03:02.874Z,20.03
2019-01-30T10:05:29.018Z,20.90
2019-01-30T10:07:55.503Z,24.07
2019-01-30T10:10:34.576Z,25.20
2019-01-30T10:13:00.914Z,22.03
2019-01-30T10:15:36.082Z,21.23
2019-01-30T10:18:02.259Z,22.73
2019-01-30T10:20:30.051Z,21.30
2019-01-30T10:22:56.206Z,23.93
2019-01-30T10:25:22.370Z,24.93
2019-01-30T10:27:49.526Z,23.27
2019-01-30T10:30:22.281Z,20.47
2019-01-30T10:32:48.443Z,22.70
2019-01-30T10:35:14.601Z,20.70
2019-01-30T10:37:40.767Z,23.37
2019-01-30T10:40:16.728Z,26.53
2019-01-30T10:42:42.878Z,27.47
2019-01-30T10:45:09.833Z,27.80
2019-01-30T10:47:35.980Z,34.33
2019-01-30T10:50:06.778Z,26.60
2019-01-30T10:52:33.219Z,30.90
2019-01-30T10:54:59.412Z,27.57
2019-01-30T10:57:25.896Z,32.50
2019-01-30T10:59:52.286Z,27.83
2019-01-30T11:02:18.446Z,28.10
2019-01-30T11:04:44.590Z,28.37
2019-01-30T11:07:10.776Z,28.43
2019-01-30T11:09:37.186Z,32.50
2019-01-30T11:12:04.358Z,33.33
2019-01-30T11:14:30.753Z,34.70
2019-01-30T11:16:57.126Z,29.90
2019-01-30T11:19:23.550Z,28.93
2019-01-30T11:21:49.708Z,30.33
2019-01-30T11:24:15.865Z,30.00
2019-01-30T11:26:42.363Z,31.83
2019-01-30T11:29:08.508Z,30.77
2019-01-30T11:31:34.662Z,35.43
2019-01-30T11:34:07.258Z,34.23
2019-01-30T11:36:28.876Z,33.73
2019-01-30T11:38:55.294Z,34.13
2019-01-30T11:41:21.455Z,30.97
2019-01-30T11:43:47.940Z,33.73
2019-01-30T11:46:14.093Z,33.93
2019-01-30T11:48:40.262Z,36.70
2019-01-30T11:51:06.876Z,36.27
2019-01-30T11:53:33.124Z,39.90
2019-01-30T11:55:59.278Z,37.27
2019-01-30T11:58:25.667Z,33.60
2019-01-30T12:00:56.511Z,34.10
2019-01-30T12:03:22.724Z,40.17
2019-01-30T12:05:48.888Z,37.67
2019-01-30T12:08:15.041Z,38.03
2019-01-30T12:10:41.192Z,39.53
2019-01-30T12:13:07.336Z,31.70
2019-01-30T12:15:33.574Z,33.27
2019-01-30T12:17:59.720Z,35.90
2019-01-30T12:20:25.903Z,37.77
2019-01-30T12:22:52.052Z,39.67
2019-01-30T12:25:19.768Z,38.03
2019-01-30T12:27:45.957Z,36.17
2019-01-30T12:30:25.305Z,40.77
2019-01-30T12:32:51.491Z,37.50
2019-01-30T12:35:17.627Z,41.13
2019-01-30T12:37:43.791Z,39.23
2019-01-30T12:40:15.067Z,35.63
2019-01-30T12:42:41.222Z,36.57
2019-01-30T12:45:11.294Z,41.97
2019-01-30T12:47:37.559Z,40.77
2019-01-30T12:50:07.514Z,39.27
2019-01-30T12:52:33.858Z,46.43
2019-01-30T12:55:00.011Z,39.63
2019-01-30T12:57:26.182Z,44.60
2019-01-30T12:59:52.347Z,42.47
2019-01-30T13:02:18.515Z,41.73
2019-01-30T13:04:44.698Z,40.03
2019-01-30T13:07:10.874Z,37.33
2019-01-30T13:09:37.118Z,39.10
2019-01-30T13:12:03.569Z,37.93
2019-01-30T13:14:30.003Z,40.37
2019-01-30T13:16:56.157Z,36.10
2019-01-30T13:19:22.306Z,39.50
2019-01-30T13:21:48.538Z,39.87
2019-01-30T13:24:14.678Z,35.23
2019-01-30T13:26:40.822Z,38.20
2019-01-30T13:29:06.979Z,36.20
2019-01-30T13:31:33.399Z,35.67
2019-01-30T13:33:59.546Z,33.63
2019-01-30T13:36:25.692Z,34.30
2019-01-30T13:38:52.848Z,42.47
2019-01-30T13:41:19.015Z,36.07
2019-01-30T13:43:45.183Z,38.37
2019-01-30T13:46:11.348Z,35.87
2019-01-30T13:48:37.531Z,37.70
2019-01-30T13:51:03.667Z,36.23
2019-01-30T13:53:29.850Z,36.87
2019-01-30T13:55:56.101Z,39.23
2019-01-30T13:58:22.329Z,39.97
2019-01-30T14:00:48.464Z,42.90
2019-01-30T14:03:14.793Z,41.30
2019-01-30T14:05:41.010Z,47.23
2019-01-30T14:08:07.162Z,45.20
2019-01-30T14:10:33.318Z,43.17
2019-01-30T14:12:59.519Z,52.53
2019-01-30T14:15:28.047Z,54.97
2019-01-30T14:17:54.239Z,44.17
2019-01-30T14:20:20.411Z,41.70
2019-01-30T14:22:46.611Z,45.97
2019-01-30T14:25:13.539Z,41.23
2019-01-30T14:27:39.725Z,47.43
2019-01-30T14:30:09.679Z,40.83
2019-01-30T14:32:35.827Z,45.93
2019-01-30T14:35:10.591Z,46.57
2019-01-30T14:37:30.779Z,54.93
2019-01-30T14:39:56.968Z,47.33
2019-01-30T14:42:23.234Z,52.80
2019-01-30T14:44:49.390Z,49.27
2019-01-30T14:47:15.636Z,53.37
2019-01-30T14:49:42.069Z,46.40
2019-01-30T14:52:08.309Z,54.17
2019-01-30T14:54:34.446Z,50.47
2019-01-30T14:57:00.660Z,46.37
2019-01-30T14:59:26.828Z,45.43
2019-01-30T15:01:54.294Z,43.50
2019-01-30T15:04:20.528Z,43.87
2019-01-30T15:06:46.658Z,43.63
2019-01-30T15:09:12.824Z,42.97
2019-01-30T15:11:39.351Z,43.10
2019-01-30T15:14:05.531Z,50.93
2019-01-30T15:16:31.748Z,44.50
2019-01-30T15:18:57.918Z,36.37
2019-01-30T15:21:24.332Z,40.90
2019-01-30T15:23:50.539Z,42.83
2019-01-30T15:26:16.690Z,39.93
2019-01-30T15:28:42.837Z,46.47
2019-01-30T15:31:09.245Z,41.80
2019-01-30T15:33:35.430Z,44.93
2019-01-30T15:36:01.603Z,43.20
2019-01-30T15:38:27.985Z,41.73
2019-01-30T15:40:54.155Z,45.10
2019-01-30T15:43:21.075Z,44.90
2019-01-30T15:45:47.227Z,54.23
2019-01-30T15:48:13.381Z,51.23
2019-01-30T15:50:40.651Z,51.70
2019-01-30T15:53:11.942Z,47.70
2019-01-30T15:55:38.103Z,53.03
2019-01-30T15:58:06.846Z,63.20
2019-01-30T16:00:41.962Z,57.33
2019-01-30T16:03:08.098Z,54.40
2019-01-30T16:05:44.146Z,56.50
2019-01-30T16:08:02.365Z,55.03
2019-01-30T16:10:28.779Z,60.77
2019-01-30T16:12:54.930Z,53.50
2019-01-30T16:15:24.299Z,59.03
2019-01-30T16:17:50.464Z,61.33
2019-01-30T16:20:16.635Z,64.13
2019-01-30T16:22:42.796Z,62.57
2019-01-30T16:25:10.732Z,71.63
2019-01-30T16:27:37.164Z,63.70
2019-01-30T16:30:12.856Z,69.57
2019-01-30T16:32:40.047Z,64.73
2019-01-30T16:35:10.003Z,68.43
2019-01-30T16:37:36.160Z,59.73
2019-01-30T16:40:05.226Z,81.42
2019-01-30T16:42:31.379Z,72.10
2019-01-30T16:44:57.551Z,59.80
2019-01-30T16:47:23.980Z,54.20
2019-01-30T16:49:50.131Z,54.20
2019-01-30T16:52:16.275Z,55.90
2019-01-30T16:54:42.436Z,50.63
2019-01-30T16:57:08.616Z,61.07
2019-01-30T16:59:34.787Z,54.37
2019-01-30T17:02:00.922Z,54.07
2019-01-30T17:04:27.344Z,51.40
2019-01-30T17:06:53.766Z,53.97
2019-01-30T17:09:19.932Z,59.90
2019-01-30T17:11:46.333Z,57.70
2019-01-30T17:14:12.562Z,54.67
2019-01-30T17:16:38.707Z,53.80
2019-01-30T17:19:04.895Z,54.73
2019-01-30T17:21:31.275Z,49.87
2019-01-30T17:23:57.654Z,54.90
2019-01-30T17:26:23.835Z,49.53
2019-01-30T17:28:49.999Z,49.97
2019-01-30T17:31:16.160Z,52.30
2019-01-30T17:33:42.317Z,54.03
2019-01-30T17:36:18.127Z,52.57
2019-01-30T17:38:36.561Z,55.03
2019-01-30T17:41:03.029Z,52.53
2019-01-30T17:43:29.179Z,48.20
2019-01-30T17:45:55.343Z,52.33
2019-01-30T17:48:21.511Z,48.63
2019-01-30T17:50:47.668Z,48.53
2019-01-30T17:53:13.816Z,48.90
2019-01-30T17:55:39.983Z,50.10
2019-01-30T17:58:06.127Z,49.17
2019-01-30T18:00:37.290Z,47.87
2019-01-30T18:03:03.679Z,48.03
2019-01-30T18:05:29.847Z,55.87
2019-01-30T18:07:56.233Z,52.53
2019-01-30T18:10:22.611Z,52.03
2019-01-30T18:12:48.999Z,51.70
2019-01-30T18:15:15.172Z,52.60
2019-01-30T18:17:41.563Z,49.93
2019-01-30T18:20:18.744Z,52.57
2019-01-30T18:22:45.913Z,52.13
2019-01-30T18:25:14.195Z,46.93
2019-01-30T18:27:40.360Z,51.13
2019-01-30T18:30:09.815Z,54.00
2019-01-30T18:32:37.228Z,54.20
2019-01-30T18:35:04.542Z,55.93
2019-01-30T18:37:30.686Z,53.83
2019-01-30T18:39:56.848Z,52.53
2019-01-30T18:42:23.027Z,47.57
2019-01-30T18:44:49.194Z,54.03
2019-01-30T18:47:15.356Z,59.20
2019-01-30T18:49:42.079Z,56.33
2019-01-30T18:52:08.390Z,52.20
2019-01-30T18:54:34.571Z,53.00
2019-01-30T18:57:00.973Z,56.80
2019-01-30T18:59:27.123Z,54.80
2019-01-30T19:01:53.542Z,60.37
2019-01-30T19:04:19.695Z,65.30
2019-01-30T19:06:52.401Z,67.77
2019-01-30T19:09:14.022Z,67.07
2019-01-30T19:11:40.192Z,68.53
2019-01-30T19:14:06.372Z,64.70
2019-01-30T19:16:32.531Z,56.97
2019-01-30T19:18:58.723Z,68.63
2019-01-30T19:21:24.876Z,67.20
2019-01-30T19:23:51.029Z,66.00
2019-01-30T19:26:17.195Z,66.77
2019-01-30T19:28:43.350Z,65.43
2019-01-30T19:31:09.782Z,64.33
2019-01-30T19:33:35.987Z,59.47
2019-01-30T19:36:03.899Z,60.60
2019-01-30T19:38:30.060Z,61.23
2019-01-30T19:40:56.260Z,55.47
2019-01-30T19:43:22.531Z,60.47
2019-01-30T19:45:48.727Z,59.97
2019-01-30T19:48:14.891Z,60.43
2019-01-30T19:50:41.104Z,60.93
2019-01-30T19:53:07.257Z,64.63
2019-01-30T19:55:33.406Z,62.07
2019-01-30T19:57:59.576Z,60.63
2019-01-30T20:00:31.364Z,63.40
2019-01-30T20:02:58.617Z,62.73
2019-01-30T20:05:24.822Z,63.00
2019-01-30T20:07:50.977Z,61.50
2019-01-30T20:10:25.786Z,70.13
2019-01-30T20:12:51.950Z,64.97
2019-01-30T20:15:18.139Z,72.40
2019-01-30T20:17:44.323Z,61.47
2019-01-30T20:20:13.283Z,61.97
2019-01-30T20:22:39.440Z,66.97
2019-01-30T20:25:25.763Z,69.60
2019-01-30T20:27:52.049Z,61.57
2019-01-30T20:30:22.717Z,65.23
2019-01-30T20:32:48.888Z,65.37
2019-01-30T20:35:15.063Z,60.93
2019-01-30T20:37:41.622Z,60.50
2019-01-30T20:40:11.471Z,58.63
2019-01-30T20:42:37.660Z,59.80
2019-01-30T20:45:07.491Z,59.87
2019-01-30T20:47:33.663Z,66.03
2019-01-30T20:50:00.289Z,56.83
2019-01-30T20:52:27.670Z,58.97
2019-01-30T20:54:59.883Z,57.43
2019-01-30T20:57:22.207Z,56.43
2019-01-30T20:59:51.064Z,53.83
2019-01-30T21:02:17.319Z,54.47
2019-01-30T21:04:43.504Z,55.97
2019-01-30T21:07:09.655Z,54.00
2019-01-30T21:09:35.830Z,55.53
2019-01-30T21:12:01.989Z,59.77
2019-01-30T21:14:28.411Z,47.70
2019-01-30T21:16:54.776Z,57.63
2019-01-30T21:19:21.198Z,56.83
2019-01-30T21:21:47.543Z,56.83
2019-01-30T21:24:13.984Z,66.83
2019-01-30T21:26:40.415Z,59.10
2019-01-30T21:29:06.608Z,61.37
2019-01-30T21:31:32.817Z,55.57
2019-01-30T21:33:58.992Z,57.53
2019-01-30T21:36:25.167Z,62.90
2019-01-30T21:38:51.549Z,71.60
2019-01-30T21:41:17.694Z,54.20
2019-01-30T21:43:44.126Z,60.73
2019-01-30T21:46:10.262Z,65.30
2019-01-30T21:48:36.837Z,60.60
2019-01-30T21:51:03.252Z,50.27
2019-01-30T21:53:29.406Z,53.60
2019-01-30T21:55:55.595Z,56.07
2019-01-30T21:58:21.759Z,55.10
2019-01-30T22:00:47.927Z,53.10
2019-01-30T22:03:14.079Z,57.97
2019-01-30T22:05:40.240Z,55.20
2019-01-30T22:08:06.425Z,55.90
2019-01-30T22:10:32.603Z,54.90
2019-01-30T22:12:59.013Z,49.73
2019-01-30T22:15:25.287Z,50.43
2019-01-30T22:17:51.474Z,47.00
2019-01-30T22:20:22.419Z,47.43
2019-01-30T22:22:48.655Z,49.63
2019-01-30T22:25:20.210Z,46.57
2019-01-30T22:27:44.955Z,45.60
2019-01-30T22:30:20.388Z,42.77
2019-01-30T22:32:46.561Z,43.47
2019-01-30T22:35:12.725Z,46.20
2019-01-30T22:37:38.872Z,48.57
2019-01-30T22:40:12.665Z,45.73
2019-01-30T22:42:39.088Z,46.47
2019-01-30T22:45:08.058Z,41.97
2019-01-30T22:47:34.281Z,43.17
2019-01-30T22:50:00.450Z,45.93
2019-01-30T22:52:26.591Z,44.03
2019-01-30T22:54:52.755Z,45.20
2019-01-30T22:57:18.921Z,52.63
2019-01-30T22:59:45.074Z,48.40
2019-01-30T23:02:11.490Z,50.43
2019-01-30T23:04:45.446Z,51.07
2019-01-30T23:07:15.275Z,46.40
2019-01-30T23:09:56.810Z,48.03
2019-01-30T23:12:26.887Z,47.40
2019-01-30T23:14:59.511Z,44.13
2019-01-30T23:17:54.559Z,50.50
2019-01-30T23:20:22.681Z,45.30
2019-01-30T23:22:58.603Z,42.33
2019-01-30T23:25:28.548Z,51.37
2019-01-30T23:27:58.514Z,47.80
2019-01-30T23:30:43.559Z,40.13
2019-01-30T23:33:20.339Z,44.83
2019-01-30T23:36:02.177Z,46.57
2019-01-30T23:38:34.460Z,47.70
2019-01-30T23:41:09.523Z,51.83
2019-01-30T23:43:57.463Z,44.63
2019-01-30T23:46:30.338Z,43.83
2019-01-30T23:49:33.761Z,45.93
2019-01-30T23:52:06.538Z,40.07
2019-01-30T23:54:39.254Z,43.40
2019-01-30T23:57:17.862Z,39.83
2019-01-30T23:59:56.766Z,39.87
